createdAt,value
2017-05-13T00:00:14.956Z,22.57
2017-05-13T00:01:15.025Z,22.24
2017-05-13T00:02:15.412Z,22.04
2017-05-13T00:03:14.512Z,21.99
2017-05-13T00:04:14.722Z,21.96
2017-05-13T00:05:15.532Z,21.95
2017-05-13T00:06:14.495Z,21.94
2017-05-13T00:07:15.035Z,21.93
2017-05-13T00:08:15.244Z,21.93
2017-05-13T00:09:16.377Z,21.93
2017-05-13T00:10:15.756Z,21.93
2017-05-13T00:11:15.140Z,21.92
2017-05-13T00:12:15.749Z,21.93
2017-05-13T00:13:14.828Z,21.91
2017-05-13T00:14:15.239Z,21.92
2017-05-13T00:15:12.537Z,21.92
2017-05-13T00:16:15.064Z,21.92
2017-05-13T00:17:12.619Z,21.91
2017-05-13T00:18:14.820Z,21.92
2017-05-13T00:19:15.415Z,21.92
2017-05-13T00:20:14.614Z,21.92
2017-05-13T00:21:15.575Z,21.92
2017-05-13T00:22:14.281Z,21.92
2017-05-13T00:23:14.592Z,21.91
2017-05-13T00:24:14.563Z,21.91
2017-05-13T00:25:15.886Z,21.91
2017-05-13T00:26:15.833Z,21.91
2017-05-13T00:27:15.466Z,21.91
2017-05-13T00:28:14.607Z,22.45
2017-05-13T00:29:14.762Z,21.96
2017-05-13T00:30:14.800Z,21.93
2017-05-13T00:31:15.156Z,21.92
2017-05-13T00:32:16.026Z,21.91
2017-05-13T00:33:15.397Z,21.91
2017-05-13T00:34:16.165Z,21.90
2017-05-13T00:35:12.170Z,21.90
2017-05-13T00:36:15.040Z,21.90
2017-05-13T00:37:14.769Z,21.90
2017-05-13T00:38:15.812Z,21.90
2017-05-13T00:39:15.588Z,21.97
2017-05-13T00:40:15.238Z,21.90
2017-05-13T00:41:15.480Z,21.90
2017-05-13T00:42:15.956Z,22.43
2017-05-13T00:43:15.312Z,21.95
2017-05-13T00:44:15.399Z,21.92
2017-05-13T00:45:15.478Z,21.91
2017-05-13T00:46:14.954Z,21.90
2017-05-13T00:47:14.733Z,21.90
2017-05-13T00:48:15.268Z,21.90
2017-05-13T00:49:15.761Z,21.89
2017-05-13T00:50:15.198Z,21.90
2017-05-13T00:51:11.558Z,21.89
2017-05-13T00:52:15.060Z,21.89
2017-05-13T00:53:12.122Z,21.89
2017-05-13T00:54:10.286Z,21.89
2017-05-13T00:55:15.042Z,21.92
2017-05-13T00:56:16.386Z,22.43
2017-05-13T00:57:17.771Z,22.47
2017-05-13T00:58:15.212Z,22.51
2017-05-13T00:59:15.509Z,22.51
2017-05-13T01:00:12.349Z,22.52
2017-05-13T01:01:15.622Z,22.53
2017-05-13T01:02:15.845Z,22.17
2017-05-13T01:03:10.953Z,21.99
2017-05-13T01:04:15.380Z,21.94
2017-05-13T01:05:14.246Z,21.90
2017-05-13T01:06:15.557Z,21.90
2017-05-13T01:07:14.479Z,21.90
2017-05-13T01:08:15.438Z,21.89
2017-05-13T01:09:14.350Z,21.89
2017-05-13T01:10:15.554Z,21.89
2017-05-13T01:11:17.099Z,21.89
2017-05-13T01:12:15.487Z,21.89
2017-05-13T01:13:14.369Z,21.88
2017-05-13T01:14:15.513Z,21.87
2017-05-13T01:15:14.429Z,21.88
2017-05-13T01:16:14.471Z,21.88
2017-05-13T01:17:14.773Z,21.87
2017-05-13T01:18:14.669Z,21.88
2017-05-13T01:19:14.750Z,21.87
2017-05-13T01:20:15.157Z,21.87
2017-05-13T01:21:15.308Z,21.91
2017-05-13T01:22:15.390Z,22.41
2017-05-13T01:23:15.598Z,21.92
2017-05-13T01:24:12.587Z,21.89
2017-05-13T01:25:14.591Z,21.89
2017-05-13T01:26:14.582Z,21.87
2017-05-13T01:27:14.547Z,21.87
2017-05-13T01:28:14.881Z,21.87
2017-05-13T01:29:15.420Z,21.87
2017-05-13T01:30:15.440Z,21.85
2017-05-13T01:31:15.145Z,21.87
2017-05-13T01:32:15.108Z,21.86
2017-05-13T01:33:16.675Z,21.94
2017-05-13T01:34:15.108Z,21.86
2017-05-13T01:35:15.614Z,21.86
2017-05-13T01:36:14.911Z,21.86
2017-05-13T01:37:16.246Z,21.87
2017-05-13T01:38:15.350Z,21.86
2017-05-13T01:39:16.335Z,21.85
2017-05-13T01:40:15.506Z,21.86
2017-05-13T01:41:14.716Z,21.86
2017-05-13T01:42:14.621Z,21.86
2017-05-13T01:43:15.199Z,21.86
2017-05-13T01:44:15.336Z,22.39
2017-05-13T01:45:16.418Z,22.43
2017-05-13T01:46:15.243Z,22.46
2017-05-13T01:47:16.121Z,22.40
2017-05-13T01:48:15.619Z,21.94
2017-05-13T01:49:14.743Z,21.90
2017-05-13T01:50:11.187Z,21.88
2017-05-13T01:51:15.061Z,21.86
2017-05-13T01:52:15.551Z,21.86
2017-05-13T01:53:15.072Z,21.86
2017-05-13T01:54:15.139Z,21.86
2017-05-13T01:55:15.379Z,21.85
2017-05-13T01:56:15.155Z,21.86
2017-05-13T01:57:15.487Z,21.85
2017-05-13T01:58:14.544Z,21.85
2017-05-13T01:59:15.086Z,21.88
2017-05-13T02:00:15.721Z,22.39
2017-05-13T02:01:15.135Z,22.43
2017-05-13T02:02:15.503Z,22.10
2017-05-13T02:03:15.051Z,21.96
2017-05-13T02:04:15.272Z,22.42
2017-05-13T02:05:15.756Z,22.46
2017-05-13T02:06:14.792Z,22.46
2017-05-13T02:07:15.053Z,22.47
2017-05-13T02:08:12.343Z,21.94
2017-05-13T02:09:15.428Z,22.44
2017-05-13T02:10:16.168Z,22.45
2017-05-13T02:11:15.221Z,22.47
2017-05-13T02:12:15.752Z,22.46
2017-05-13T02:13:15.094Z,22.46
2017-05-13T02:14:12.391Z,22.46
2017-05-13T02:15:16.215Z,22.47
2017-05-13T02:16:15.103Z,22.46
2017-05-13T02:17:15.383Z,22.46
2017-05-13T02:18:15.726Z,22.46
2017-05-13T02:19:15.316Z,22.47
2017-05-13T02:20:15.918Z,22.45
2017-05-13T02:21:15.093Z,21.92
2017-05-13T02:22:15.333Z,21.88
2017-05-13T02:23:16.036Z,21.84
2017-05-13T02:24:15.211Z,21.83
2017-05-13T02:25:15.893Z,21.82
2017-05-13T02:26:15.105Z,21.82
2017-05-13T02:27:15.331Z,21.81
2017-05-13T02:28:15.510Z,21.81
2017-05-13T02:29:15.027Z,21.80
2017-05-13T02:30:11.800Z,21.80
2017-05-13T02:31:16.333Z,22.34
2017-05-13T02:32:16.413Z,22.38
2017-05-13T02:33:16.273Z,22.40
2017-05-13T02:34:13.389Z,21.89
2017-05-13T02:35:15.186Z,22.37
2017-05-13T02:36:15.906Z,22.40
2017-05-13T02:37:20.950Z,22.03
2017-05-13T02:38:15.103Z,21.87
2017-05-13T02:39:15.004Z,21.83
2017-05-13T02:40:15.432Z,21.81
2017-05-13T02:41:14.990Z,21.83
2017-05-13T02:42:16.125Z,21.79
2017-05-13T02:43:16.054Z,21.79
2017-05-13T02:44:17.937Z,21.78
2017-05-13T02:45:14.834Z,21.78
2017-05-13T02:46:16.223Z,21.78
2017-05-13T02:47:15.257Z,21.77
2017-05-13T02:48:15.365Z,21.78
2017-05-13T02:49:14.154Z,21.77
2017-05-13T02:50:15.295Z,21.77
2017-05-13T02:51:12.374Z,21.76
2017-05-13T02:52:15.256Z,22.29
2017-05-13T02:53:15.333Z,22.35
2017-05-13T02:54:15.380Z,22.37
2017-05-13T02:55:14.472Z,22.39
2017-05-13T02:56:12.299Z,22.39
2017-05-13T02:57:14.517Z,22.05
2017-05-13T02:58:11.143Z,21.86
2017-05-13T02:59:14.862Z,21.81
2017-05-13T03:00:15.563Z,21.78
2017-05-13T03:01:14.692Z,21.77
2017-05-13T03:02:14.582Z,21.77
2017-05-13T03:03:15.314Z,21.76
2017-05-13T03:04:15.758Z,21.76
2017-05-13T03:05:14.941Z,21.76
2017-05-13T03:06:15.033Z,21.75
2017-05-13T03:07:15.563Z,21.75
2017-05-13T03:08:14.783Z,21.74
2017-05-13T03:09:14.905Z,21.75
2017-05-13T03:10:15.233Z,21.74
2017-05-13T03:11:12.708Z,21.74
2017-05-13T03:12:15.334Z,21.74
2017-05-13T03:13:15.686Z,21.74
2017-05-13T03:14:15.182Z,21.73
2017-05-13T03:15:12.899Z,21.74
2017-05-13T03:16:15.211Z,21.74
2017-05-13T03:17:15.746Z,21.74
2017-05-13T03:18:14.885Z,21.74
2017-05-13T03:19:12.871Z,21.73
2017-05-13T03:20:15.309Z,21.76
2017-05-13T03:21:15.509Z,21.93
2017-05-13T03:22:14.999Z,21.78
2017-05-13T03:23:15.849Z,21.75
2017-05-13T03:24:15.580Z,21.74
2017-05-13T03:25:15.163Z,22.26
2017-05-13T03:26:15.389Z,22.30
2017-05-13T03:27:15.265Z,22.35
2017-05-13T03:28:15.366Z,22.34
2017-05-13T03:29:11.192Z,21.82
2017-05-13T03:30:15.485Z,21.77
2017-05-13T03:31:16.302Z,21.75
2017-05-13T03:32:15.605Z,21.73
2017-05-13T03:33:12.818Z,21.72
2017-05-13T03:34:14.992Z,21.90
2017-05-13T03:35:12.629Z,21.77
2017-05-13T03:36:15.782Z,21.73
2017-05-13T03:37:14.912Z,21.72
2017-05-13T03:38:17.147Z,21.72
2017-05-13T03:39:15.252Z,21.72
2017-05-13T03:40:15.050Z,21.71
2017-05-13T03:41:12.609Z,21.71
2017-05-13T03:42:11.191Z,21.71
2017-05-13T03:43:11.203Z,21.70
2017-05-13T03:44:14.914Z,21.71
2017-05-13T03:45:15.465Z,21.70
2017-05-13T03:46:14.386Z,21.70
2017-05-13T03:47:14.563Z,21.70
2017-05-13T03:48:15.091Z,21.71
2017-05-13T03:49:11.464Z,21.70
2017-05-13T03:50:14.834Z,21.70
2017-05-13T03:51:15.035Z,21.70
2017-05-13T03:52:15.363Z,21.70
2017-05-13T03:53:15.564Z,21.71
2017-05-13T03:54:14.737Z,21.70
2017-05-13T03:55:14.890Z,21.70
2017-05-13T03:56:14.977Z,21.69
2017-05-13T03:57:12.493Z,21.68
2017-05-13T03:58:11.947Z,22.22
2017-05-13T03:59:15.027Z,21.94
2017-05-13T04:00:15.056Z,21.77
2017-05-13T04:01:15.562Z,21.73
2017-05-13T04:02:15.524Z,21.72
2017-05-13T04:03:15.715Z,21.70
2017-05-13T04:04:10.546Z,21.69
2017-05-13T04:05:16.297Z,21.69
2017-05-13T04:06:15.297Z,21.69
2017-05-13T04:07:15.756Z,21.69
2017-05-13T04:08:14.855Z,21.69
2017-05-13T04:09:15.501Z,21.69
2017-05-13T04:10:14.572Z,22.22
2017-05-13T04:11:15.443Z,21.73
2017-05-13T04:12:14.895Z,21.71
2017-05-13T04:13:15.473Z,21.70
2017-05-13T04:14:14.582Z,21.69
2017-05-13T04:15:14.619Z,21.68
2017-05-13T04:16:14.931Z,21.68
2017-05-13T04:17:16.301Z,21.68
2017-05-13T04:18:16.225Z,21.68
2017-05-13T04:19:15.379Z,21.67
2017-05-13T04:20:14.523Z,21.68
2017-05-13T04:21:15.230Z,21.75
2017-05-13T04:22:12.350Z,21.67
2017-05-13T04:23:16.138Z,21.68
2017-05-13T04:24:15.336Z,21.66
2017-05-13T04:25:16.662Z,22.21
2017-05-13T04:26:15.160Z,21.94
2017-05-13T04:27:15.593Z,21.74
2017-05-13T04:28:14.970Z,21.70
2017-05-13T04:29:15.908Z,21.69
2017-05-13T04:30:16.672Z,21.67
2017-05-13T04:31:14.795Z,21.67
2017-05-13T04:32:16.616Z,21.66
2017-05-13T04:33:14.982Z,21.67
2017-05-13T04:34:14.939Z,21.66
2017-05-13T04:35:15.462Z,21.65
2017-05-13T04:36:15.196Z,21.66
2017-05-13T04:37:11.649Z,22.18
2017-05-13T04:38:15.769Z,22.24
2017-05-13T04:39:15.854Z,22.26
2017-05-13T04:40:14.971Z,22.28
2017-05-13T04:41:15.040Z,21.93
2017-05-13T04:42:15.789Z,21.78
2017-05-13T04:43:14.990Z,22.23
2017-05-13T04:44:16.050Z,22.27
2017-05-13T04:45:14.971Z,22.28
2017-05-13T04:46:15.500Z,22.29
2017-05-13T04:47:15.917Z,22.29
2017-05-13T04:48:15.304Z,22.29
2017-05-13T04:49:14.284Z,22.28
2017-05-13T04:50:15.445Z,22.28
2017-05-13T04:51:14.348Z,22.30
2017-05-13T04:52:15.379Z,22.29
2017-05-13T04:53:14.752Z,21.76
2017-05-13T04:54:11.072Z,21.71
2017-05-13T04:55:14.614Z,21.69
2017-05-13T04:56:14.838Z,21.67
2017-05-13T04:57:14.988Z,21.66
2017-05-13T04:58:15.163Z,21.65
2017-05-13T04:59:15.270Z,21.64
2017-05-13T05:00:16.172Z,21.65
2017-05-13T05:01:15.202Z,21.65
2017-05-13T05:02:15.803Z,21.64
2017-05-13T05:03:15.202Z,21.71
2017-05-13T05:04:15.881Z,21.64
2017-05-13T05:05:12.860Z,21.64
2017-05-13T05:06:16.169Z,21.64
2017-05-13T05:07:15.568Z,21.64
2017-05-13T05:08:15.302Z,21.64
2017-05-13T05:09:15.931Z,21.64
2017-05-13T05:10:16.231Z,21.64
2017-05-13T05:11:15.049Z,21.64
2017-05-13T05:12:15.976Z,21.63
2017-05-13T05:13:14.972Z,21.64
2017-05-13T05:14:15.269Z,21.64
2017-05-13T05:15:15.587Z,21.63
2017-05-13T05:16:14.984Z,21.63
2017-05-13T05:17:11.569Z,21.63
2017-05-13T05:18:14.511Z,21.63
2017-05-13T05:19:16.927Z,21.63
2017-05-13T05:20:15.870Z,21.66
2017-05-13T05:21:14.782Z,22.15
2017-05-13T05:22:15.004Z,22.20
2017-05-13T05:23:15.224Z,22.23
2017-05-13T05:24:15.105Z,21.88
2017-05-13T05:25:15.623Z,21.71
2017-05-13T05:26:10.828Z,21.66
2017-05-13T05:27:15.227Z,21.65
2017-05-13T05:28:15.210Z,21.64
2017-05-13T05:29:15.881Z,21.63
2017-05-13T05:30:15.340Z,21.63
2017-05-13T05:31:16.210Z,21.63
2017-05-13T05:32:12.696Z,21.63
2017-05-13T05:33:15.302Z,21.63
2017-05-13T05:34:16.081Z,21.62
2017-05-13T05:35:10.644Z,21.62
2017-05-13T05:36:14.358Z,21.63
2017-05-13T05:37:14.881Z,21.62
2017-05-13T05:38:16.142Z,21.62
2017-05-13T05:39:15.310Z,21.62
2017-05-13T05:40:15.768Z,21.62
2017-05-13T05:41:15.738Z,21.62
2017-05-13T05:42:15.182Z,21.61
2017-05-13T05:43:16.083Z,21.62
2017-05-13T05:44:15.999Z,21.62
2017-05-13T05:45:15.285Z,21.62
2017-05-13T05:46:15.978Z,21.61
2017-05-13T05:47:12.448Z,21.61
2017-05-13T05:48:15.400Z,21.61
2017-05-13T05:49:15.412Z,21.59
2017-05-13T05:50:14.656Z,21.62
2017-05-13T05:51:15.186Z,21.61
2017-05-13T05:52:15.328Z,21.61
2017-05-13T05:53:16.111Z,21.61
2017-05-13T05:54:15.632Z,21.61
2017-05-13T05:55:15.475Z,21.64
2017-05-13T05:56:14.931Z,21.63
2017-05-13T05:57:15.174Z,21.62
2017-05-13T05:58:15.401Z,21.61
2017-05-13T05:59:14.746Z,21.61
2017-05-13T06:00:15.769Z,21.61
2017-05-13T06:01:15.945Z,21.60
2017-05-13T06:02:14.731Z,21.61
2017-05-13T06:03:15.321Z,21.60
2017-05-13T06:04:16.108Z,21.60
2017-05-13T06:05:15.805Z,21.61
2017-05-13T06:06:15.191Z,22.14
2017-05-13T06:07:15.778Z,22.19
2017-05-13T06:08:14.529Z,21.68
2017-05-13T06:09:14.715Z,21.63
2017-05-13T06:10:14.658Z,21.62
2017-05-13T06:11:12.308Z,21.60
2017-05-13T06:12:14.775Z,21.60
2017-05-13T06:13:15.970Z,21.60
2017-05-13T06:14:15.185Z,21.60
2017-05-13T06:15:10.586Z,21.60
2017-05-13T06:16:15.912Z,21.59
2017-05-13T06:17:15.066Z,21.60
2017-05-13T06:18:14.781Z,21.60
2017-05-13T06:19:15.061Z,21.60
2017-05-13T06:20:14.949Z,22.08
2017-05-13T06:21:15.050Z,22.17
2017-05-13T06:22:15.528Z,22.19
2017-05-13T06:23:15.585Z,22.20
2017-05-13T06:24:14.780Z,22.22
2017-05-13T06:25:14.924Z,22.23
2017-05-13T06:26:16.026Z,21.85
2017-05-13T06:27:15.529Z,21.69
2017-05-13T06:28:15.375Z,21.65
2017-05-13T06:29:11.726Z,21.61
2017-05-13T06:30:16.070Z,22.14
2017-05-13T06:31:15.348Z,22.20
2017-05-13T06:32:16.614Z,22.23
2017-05-13T06:33:12.117Z,22.24
2017-05-13T06:34:14.806Z,22.25
2017-05-13T06:35:15.075Z,22.25
2017-05-13T06:36:11.942Z,21.75
2017-05-13T06:37:15.132Z,21.71
2017-05-13T06:38:16.702Z,21.70
2017-05-13T06:39:14.670Z,21.70
2017-05-13T06:40:15.450Z,21.77
2017-05-13T06:41:14.773Z,21.85
2017-05-13T06:42:15.703Z,21.75
2017-05-13T06:43:15.476Z,21.73
2017-05-13T06:44:14.669Z,21.71
2017-05-13T06:45:12.525Z,21.71
2017-05-13T06:46:15.313Z,21.70
2017-05-13T06:47:15.503Z,21.70
2017-05-13T06:48:14.802Z,21.69
2017-05-13T06:49:14.691Z,21.68
2017-05-13T06:50:14.754Z,21.68
2017-05-13T06:51:14.953Z,21.68
2017-05-13T06:52:15.235Z,21.67
2017-05-13T06:53:15.231Z,21.67
2017-05-13T06:54:15.401Z,21.67
2017-05-13T06:55:14.623Z,21.67
2017-05-13T06:56:14.557Z,21.67
2017-05-13T06:57:14.989Z,21.67
2017-05-13T06:58:16.333Z,21.67
2017-05-13T06:59:15.681Z,21.69
2017-05-13T07:00:14.908Z,21.69
2017-05-13T07:01:15.103Z,21.69
2017-05-13T07:02:15.410Z,21.70
2017-05-13T07:03:14.933Z,21.70
2017-05-13T07:04:15.168Z,21.70
2017-05-13T07:05:15.183Z,21.68
2017-05-13T07:06:16.086Z,21.70
2017-05-13T07:07:15.590Z,21.81
2017-05-13T07:08:14.736Z,22.11
2017-05-13T07:09:14.537Z,22.58
2017-05-13T07:10:14.823Z,23.31
2017-05-13T07:11:15.926Z,23.58
2017-05-13T07:12:15.765Z,23.72
2017-05-13T07:13:15.852Z,23.39
2017-05-13T07:14:14.910Z,23.14
2017-05-13T07:15:13.413Z,22.92
2017-05-13T07:16:15.813Z,23.30
2017-05-13T07:17:16.418Z,23.23
2017-05-13T07:18:15.086Z,23.13
2017-05-13T07:19:15.304Z,23.05
2017-05-13T07:20:18.135Z,22.99
2017-05-13T07:21:15.352Z,22.42
2017-05-13T07:22:16.317Z,22.31
2017-05-13T07:23:15.639Z,22.77
2017-05-13T07:24:12.646Z,22.76
2017-05-13T07:25:15.162Z,22.22
2017-05-13T07:26:15.799Z,22.15
2017-05-13T07:27:15.425Z,22.11
2017-05-13T07:28:14.942Z,22.07
2017-05-13T07:29:16.706Z,22.05
2017-05-13T07:30:15.254Z,22.18
2017-05-13T07:31:16.989Z,22.05
2017-05-13T07:32:13.168Z,22.02
2017-05-13T07:33:15.515Z,22.00
2017-05-13T07:34:14.645Z,21.98
2017-05-13T07:35:15.027Z,21.97
2017-05-13T07:36:16.162Z,21.96
2017-05-13T07:37:15.346Z,21.95
2017-05-13T07:38:15.736Z,21.96
2017-05-13T07:39:14.795Z,21.96
2017-05-13T07:40:15.324Z,21.96
2017-05-13T07:41:15.533Z,21.96
2017-05-13T07:42:14.374Z,21.96
2017-05-13T07:43:16.563Z,21.98
2017-05-13T07:44:14.484Z,21.97
2017-05-13T07:45:14.548Z,21.98
2017-05-13T07:46:15.259Z,22.06
2017-05-13T07:47:16.017Z,21.97
2017-05-13T07:48:14.918Z,21.97
2017-05-13T07:49:15.245Z,21.98
2017-05-13T07:50:15.484Z,21.99
2017-05-13T07:51:14.975Z,21.98
2017-05-13T07:52:15.375Z,21.98
2017-05-13T07:53:14.674Z,21.98
2017-05-13T07:54:14.474Z,21.98
2017-05-13T07:55:14.725Z,21.98
2017-05-13T07:56:14.917Z,21.99
2017-05-13T07:57:15.029Z,21.98
2017-05-13T07:58:15.188Z,21.99
2017-05-13T07:59:15.959Z,21.99
2017-05-13T08:00:15.269Z,21.97
2017-05-13T08:01:12.924Z,21.96
2017-05-13T08:02:15.077Z,22.23
2017-05-13T08:03:15.192Z,22.00
2017-05-13T08:04:15.244Z,21.96
2017-05-13T08:05:15.353Z,21.94
2017-05-13T08:06:14.730Z,21.93
2017-05-13T08:07:14.705Z,21.93
2017-05-13T08:08:16.078Z,21.92
2017-05-13T08:09:15.490Z,21.91
2017-05-13T08:10:15.037Z,22.46
2017-05-13T08:11:15.321Z,22.51
2017-05-13T08:12:15.373Z,22.53
2017-05-13T08:13:16.681Z,22.55
2017-05-13T08:14:14.452Z,22.55
2017-05-13T08:15:14.679Z,22.55
2017-05-13T08:16:14.852Z,22.56
2017-05-13T08:17:15.311Z,22.55
2017-05-13T08:18:15.589Z,22.55
2017-05-13T08:19:14.725Z,22.04
2017-05-13T08:20:11.227Z,21.98
2017-05-13T08:21:15.095Z,21.95
2017-05-13T08:22:15.518Z,21.94
2017-05-13T08:23:14.601Z,21.93
2017-05-13T08:24:14.687Z,21.93
2017-05-13T08:25:15.447Z,21.96
2017-05-13T08:26:10.484Z,22.45
2017-05-13T08:27:15.673Z,21.99
2017-05-13T08:28:16.175Z,22.02
2017-05-13T08:29:15.744Z,21.95
2017-05-13T08:30:16.103Z,21.95
2017-05-13T08:31:14.401Z,21.94
2017-05-13T08:32:14.330Z,21.94
2017-05-13T08:33:14.540Z,21.94
2017-05-13T08:34:14.892Z,21.93
2017-05-13T08:35:11.669Z,21.93
2017-05-13T08:36:15.075Z,21.93
2017-05-13T08:37:15.083Z,21.94
2017-05-13T08:38:16.605Z,21.93
2017-05-13T08:39:14.626Z,21.93
2017-05-13T08:40:15.306Z,21.98
2017-05-13T08:41:15.443Z,22.48
2017-05-13T08:42:15.255Z,22.55
2017-05-13T08:43:15.322Z,22.57
2017-05-13T08:44:15.990Z,22.59
2017-05-13T08:45:15.565Z,22.24
2017-05-13T08:46:14.590Z,22.09
2017-05-13T08:47:14.605Z,22.04
2017-05-13T08:48:14.741Z,22.02
2017-05-13T08:49:14.973Z,22.00
2017-05-13T08:50:15.316Z,22.00
2017-05-13T08:51:15.533Z,22.00
2017-05-13T08:52:14.833Z,21.98
2017-05-13T08:53:15.129Z,22.00
2017-05-13T08:54:15.798Z,22.00
2017-05-13T08:55:15.142Z,22.03
2017-05-13T08:56:11.904Z,22.52
2017-05-13T08:57:16.302Z,22.56
2017-05-13T08:58:15.573Z,22.58
2017-05-13T08:59:14.592Z,22.60
2017-05-13T09:00:15.447Z,22.59
2017-05-13T09:01:14.435Z,22.60
2017-05-13T09:02:14.758Z,22.55
2017-05-13T09:03:14.624Z,22.07
2017-05-13T09:04:15.847Z,22.03
2017-05-13T09:05:14.969Z,22.01
2017-05-13T09:06:11.199Z,22.00
2017-05-13T09:07:15.394Z,22.01
2017-05-13T09:08:14.882Z,22.03
2017-05-13T09:09:14.965Z,22.55
2017-05-13T09:10:15.921Z,22.59
2017-05-13T09:11:14.973Z,22.60
2017-05-13T09:12:16.021Z,22.62
2017-05-13T09:13:16.425Z,22.09
2017-05-13T09:14:15.552Z,22.07
2017-05-13T09:15:14.816Z,22.04
2017-05-13T09:16:15.827Z,22.07
2017-05-13T09:17:14.873Z,22.02
2017-05-13T09:18:14.885Z,22.02
2017-05-13T09:19:13.059Z,22.02
2017-05-13T09:20:15.228Z,22.04
2017-05-13T09:21:15.387Z,22.03
2017-05-13T09:22:15.109Z,22.02
2017-05-13T09:23:15.957Z,22.05
2017-05-13T09:24:15.600Z,22.53
2017-05-13T09:25:14.577Z,22.59
2017-05-13T09:26:11.877Z,22.60
2017-05-13T09:27:16.136Z,22.61
2017-05-13T09:28:15.101Z,22.62
2017-05-13T09:29:17.227Z,22.54
2017-05-13T09:30:16.235Z,21.90
2017-05-13T09:31:15.851Z,21.73
2017-05-13T09:32:15.020Z,21.72
2017-05-13T09:33:16.253Z,22.19
2017-05-13T09:34:14.303Z,22.02
2017-05-13T09:35:16.244Z,22.02
2017-05-13T09:36:14.402Z,22.07
2017-05-13T09:37:15.795Z,22.02
2017-05-13T09:38:14.805Z,22.08
2017-05-13T09:39:15.012Z,21.52
2017-05-13T09:40:15.033Z,21.43
2017-05-13T09:41:15.318Z,21.39
2017-05-13T09:42:15.025Z,21.39
2017-05-13T09:43:15.314Z,21.36
2017-05-13T09:44:15.411Z,21.35
2017-05-13T09:45:14.986Z,21.29
2017-05-13T09:46:15.305Z,21.36
2017-05-13T09:47:15.430Z,21.25
2017-05-13T09:48:14.574Z,21.29
2017-05-13T09:49:12.025Z,21.32
2017-05-13T09:50:14.707Z,21.84
2017-05-13T09:51:13.202Z,21.43
2017-05-13T09:52:15.073Z,21.73
2017-05-13T09:53:11.326Z,21.88
2017-05-13T09:54:14.465Z,21.54
2017-05-13T09:55:14.802Z,21.38
2017-05-13T09:56:14.646Z,21.27
2017-05-13T09:57:15.668Z,21.23
2017-05-13T09:58:14.507Z,21.18
2017-05-13T09:59:14.602Z,21.14
2017-05-13T10:00:14.791Z,21.31
2017-05-13T10:01:15.223Z,21.80
2017-05-13T10:02:15.275Z,21.56
2017-05-13T10:03:15.348Z,21.46
2017-05-13T10:04:15.344Z,21.43
2017-05-13T10:05:11.620Z,21.37
2017-05-13T10:06:11.810Z,21.32
2017-05-13T10:07:14.437Z,21.44
2017-05-13T10:08:15.912Z,21.24
2017-05-13T10:09:15.842Z,21.33
2017-05-13T10:10:14.900Z,21.34
2017-05-13T10:11:10.623Z,21.23
2017-05-13T10:12:15.554Z,21.05
2017-05-13T10:13:15.265Z,21.11
2017-05-13T10:14:16.603Z,21.00
2017-05-13T10:15:15.509Z,20.76
2017-05-13T10:16:14.376Z,20.87
2017-05-13T10:17:16.095Z,20.89
2017-05-13T10:18:15.248Z,21.04
2017-05-13T10:19:15.382Z,20.87
2017-05-13T10:20:15.507Z,20.96
2017-05-13T10:21:15.848Z,21.06
2017-05-13T10:22:14.833Z,21.13
2017-05-13T10:23:16.232Z,21.22
2017-05-13T10:24:15.033Z,21.28
2017-05-13T10:25:11.741Z,21.36
2017-05-13T10:26:16.579Z,21.93
2017-05-13T10:27:15.243Z,22.06
2017-05-13T10:28:13.547Z,22.12
2017-05-13T10:29:15.484Z,21.69
2017-05-13T10:30:15.376Z,22.20
2017-05-13T10:31:14.923Z,22.27
2017-05-13T10:32:16.126Z,21.99
2017-05-13T10:33:15.987Z,21.87
2017-05-13T10:34:15.784Z,21.86
2017-05-13T10:35:15.578Z,21.90
2017-05-13T10:36:11.479Z,22.42
2017-05-13T10:37:15.192Z,22.51
2017-05-13T10:38:15.341Z,22.56
2017-05-13T10:39:15.403Z,22.62
2017-05-13T10:40:15.113Z,22.10
2017-05-13T10:41:15.969Z,22.10
2017-05-13T10:42:15.421Z,22.61
2017-05-13T10:43:14.567Z,22.33
2017-05-13T10:44:14.931Z,22.18
2017-05-13T10:45:15.460Z,22.17
2017-05-13T10:46:14.547Z,22.16
2017-05-13T10:47:14.416Z,22.18
2017-05-13T10:48:14.364Z,22.18
2017-05-13T10:49:15.375Z,22.20
2017-05-13T10:50:14.770Z,22.21
2017-05-13T10:51:15.333Z,22.24
2017-05-13T10:52:15.387Z,22.26
2017-05-13T10:53:16.137Z,22.29
2017-05-13T10:54:15.436Z,22.28
2017-05-13T10:55:15.265Z,22.28
2017-05-13T10:56:15.439Z,22.26
2017-05-13T10:57:15.415Z,22.26
2017-05-13T10:58:14.629Z,22.25
2017-05-13T10:59:15.368Z,22.26
2017-05-13T11:00:16.219Z,22.30
2017-05-13T11:01:11.759Z,22.25
2017-05-13T11:02:11.767Z,22.25
2017-05-13T11:03:15.062Z,22.25
2017-05-13T11:04:15.718Z,22.26
2017-05-13T11:05:14.731Z,22.28
2017-05-13T11:06:14.895Z,22.29
2017-05-13T11:07:14.614Z,22.29
2017-05-13T11:08:14.981Z,22.28
2017-05-13T11:09:11.817Z,22.29
2017-05-13T11:10:15.311Z,22.31
2017-05-13T11:11:15.321Z,22.33
2017-05-13T11:12:14.505Z,22.34
2017-05-13T11:13:14.221Z,22.33
2017-05-13T11:14:15.945Z,22.33
2017-05-13T11:15:15.981Z,22.34
2017-05-13T11:16:15.193Z,22.35
2017-05-13T11:17:15.752Z,22.37
2017-05-13T11:18:15.278Z,22.39
2017-05-13T11:19:15.671Z,22.42
2017-05-13T11:20:14.717Z,22.42
2017-05-13T11:21:15.133Z,22.43
2017-05-13T11:22:15.913Z,22.42
2017-05-13T11:23:11.984Z,22.42
2017-05-13T11:24:15.211Z,22.43
2017-05-13T11:25:16.737Z,22.45
2017-05-13T11:26:14.762Z,22.43
2017-05-13T11:27:16.723Z,22.41
2017-05-13T11:28:14.699Z,22.41
2017-05-13T11:29:15.859Z,22.37
2017-05-13T11:30:15.145Z,22.38
2017-05-13T11:31:11.438Z,22.41
2017-05-13T11:32:14.616Z,22.42
2017-05-13T11:33:15.479Z,22.43
2017-05-13T11:34:14.378Z,22.48
2017-05-13T11:35:14.505Z,22.43
2017-05-13T11:36:14.817Z,22.43
2017-05-13T11:37:11.772Z,22.41
2017-05-13T11:38:14.444Z,22.39
2017-05-13T11:39:12.519Z,22.38
2017-05-13T11:40:14.520Z,22.89
2017-05-13T11:41:14.823Z,22.94
2017-05-13T11:42:09.766Z,22.94
2017-05-13T11:43:12.163Z,22.95
2017-05-13T11:44:15.292Z,22.97
2017-05-13T11:45:15.603Z,22.97
2017-05-13T11:46:15.428Z,22.97
2017-05-13T11:47:10.390Z,22.98
2017-05-13T11:48:14.975Z,22.46
2017-05-13T11:49:13.055Z,22.39
2017-05-13T11:50:15.359Z,22.29
2017-05-13T11:51:14.384Z,22.17
2017-05-13T11:52:11.778Z,22.23
2017-05-13T11:53:16.209Z,22.26
2017-05-13T11:54:15.643Z,22.27
2017-05-13T11:55:14.526Z,22.12
2017-05-13T11:56:15.264Z,22.22
2017-05-13T11:57:17.097Z,22.22
2017-05-13T11:58:16.015Z,22.19
2017-05-13T11:59:15.221Z,22.24
2017-05-13T12:00:17.845Z,22.24
2017-05-13T12:01:15.496Z,22.24
2017-05-13T12:02:14.168Z,22.23
2017-05-13T12:03:15.678Z,22.17
2017-05-13T12:04:14.950Z,22.17
2017-05-13T12:05:15.190Z,22.16
2017-05-13T12:06:15.323Z,22.14
2017-05-13T12:07:15.499Z,22.12
2017-05-13T12:08:14.226Z,22.11
2017-05-13T12:09:15.651Z,22.07
2017-05-13T12:10:14.875Z,22.06
2017-05-13T12:11:15.169Z,22.00
2017-05-13T12:12:15.003Z,22.04
2017-05-13T12:13:15.516Z,22.08
2017-05-13T12:14:12.465Z,22.64
2017-05-13T12:15:14.440Z,22.41
2017-05-13T12:16:15.962Z,22.56
2017-05-13T12:17:15.391Z,22.15
2017-05-13T12:18:15.276Z,22.13
2017-05-13T12:19:16.347Z,22.07
2017-05-13T12:20:15.667Z,22.13
2017-05-13T12:21:14.680Z,22.15
2017-05-13T12:22:15.174Z,22.00
2017-05-13T12:23:12.587Z,21.95
2017-05-13T12:24:15.673Z,22.57
2017-05-13T12:25:26.800Z,22.60
2017-05-13T12:26:16.962Z,22.20
2017-05-13T12:27:12.787Z,22.18
2017-05-13T12:28:15.824Z,22.22
2017-05-13T12:29:15.125Z,22.12
2017-05-13T12:30:16.510Z,21.97
2017-05-13T12:31:14.242Z,21.95
2017-05-13T12:32:15.323Z,22.06
2017-05-13T12:33:11.128Z,22.14
2017-05-13T12:34:15.617Z,22.17
2017-05-13T12:35:14.443Z,22.06
2017-05-13T12:36:14.937Z,22.00
2017-05-13T12:37:15.528Z,22.47
2017-05-13T12:38:13.073Z,22.66
2017-05-13T12:39:14.952Z,22.64
2017-05-13T12:40:15.086Z,22.62
2017-05-13T12:41:15.057Z,22.66
2017-05-13T12:42:15.263Z,22.24
2017-05-13T12:43:15.526Z,22.23
2017-05-13T12:44:17.326Z,22.20
2017-05-13T12:45:15.321Z,22.10
2017-05-13T12:46:14.458Z,22.02
2017-05-13T12:47:14.576Z,22.15
2017-05-13T12:48:15.330Z,22.67
2017-05-13T12:49:15.494Z,22.59
2017-05-13T12:50:14.321Z,22.65
2017-05-13T12:51:16.133Z,22.65
2017-05-13T12:52:16.596Z,22.69